sensor_id;sensor_type;location;lat;lon;timestamp;pressure;altitude;pressure_sealevel;temperature;humidity
49459;BME280;35354;51.296;16.924;2022-08-11T00:01:46;100465.09;;;18.84;59.24
49459;BME280;35354;51.296;16.924;2022-08-11T00:04:13;100475.03;;;18.81;59.68
49459;BME280;35354;51.296;16.924;2022-08-11T00:06:40;100465.72;;;18.75;59.95
49459;BME280;35354;51.296;16.924;2022-08-11T00:09:09;100467.72;;;18.72;60.42
49459;BME280;35354;51.296;16.924;2022-08-11T00:11:41;100463.13;;;18.61;60.56
49459;BME280;35354;51.296;16.924;2022-08-11T00:14:33;100473.56;;;18.62;61.21
49459;BME280;35354;51.296;16.924;2022-08-11T00:17:07;100466.38;;;18.52;61.59
49459;BME280;35354;51.296;16.924;2022-08-11T00:20:09;100478.94;;;18.48;61.80
49459;BME280;35354;51.296;16.924;2022-08-11T00:22:38;100462.97;;;18.37;62.02
49459;BME280;35354;51.296;16.924;2022-08-11T00:25:16;100468.16;;;18.38;61.78
49459;BME280;35354;51.296;16.924;2022-08-11T00:27:42;100455.66;;;18.28;62.05
49459;BME280;35354;51.296;16.924;2022-08-11T00:30:09;100466.84;;;18.31;61.98
49459;BME280;35354;51.296;16.924;2022-08-11T00:32:41;100450.59;;;18.25;62.09
49459;BME280;35354;51.296;16.924;2022-08-11T00:35:10;100456.63;;;18.27;61.97
49459;BME280;35354;51.296;16.924;2022-08-11T00:37:37;100467.06;;;18.28;62.40
49459;BME280;35354;51.296;16.924;2022-08-11T00:40:07;100472.31;;;18.28;62.35
49459;BME280;35354;51.296;16.924;2022-08-11T00:42:47;100470.09;;;18.22;62.53
49459;BME280;35354;51.296;16.924;2022-08-11T00:48:31;100470.28;;;18.19;62.99
49459;BME280;35354;51.296;16.924;2022-08-11T00:54:05;100465.72;;;18.08;63.59
49459;BME280;35354;51.296;16.924;2022-08-11T01:02:40;100460.53;;;17.80;65.13
49459;BME280;35354;51.296;16.924;2022-08-11T01:05:38;100472.75;;;17.81;65.57
49459;BME280;35354;51.296;16.924;2022-08-11T01:11:12;100470.22;;;17.65;66.42
49459;BME280;35354;51.296;16.924;2022-08-11T01:25:25;100459.97;;;17.32;68.78
49459;BME280;35354;51.296;16.924;2022-08-11T01:48:04;100464.50;;;16.87;72.14
49459;BME280;35354;51.296;16.924;2022-08-11T01:50:56;100461.09;;;16.85;72.00
49459;BME280;35354;51.296;16.924;2022-08-11T01:59:01;100464.38;;;16.88;70.41
49459;BME280;35354;51.296;16.924;2022-08-11T02:06:57;100445.78;;;16.77;70.44
49459;BME280;35354;51.296;16.924;2022-08-11T02:15:13;100447.38;;;16.80;70.50
49459;BME280;35354;51.296;16.924;2022-08-11T02:20:31;100445.50;;;16.82;71.02
49459;BME280;35354;51.296;16.924;2022-08-11T02:23:57;100456.78;;;16.84;70.68
49459;BME280;35354;51.296;16.924;2022-08-11T02:26:49;100458.56;;;16.83;71.06
49459;BME280;35354;51.296;16.924;2022-08-11T02:29:24;100454.31;;;16.81;71.09
49459;BME280;35354;51.296;16.924;2022-08-11T02:35:11;100458.06;;;16.77;71.21
49459;BME280;35354;51.296;16.924;2022-08-11T02:38:06;100464.09;;;16.79;71.44
49459;BME280;35354;51.296;16.924;2022-08-11T02:44:05;100458.94;;;16.77;71.38
49459;BME280;35354;51.296;16.924;2022-08-11T02:52:54;100458.06;;;16.77;71.78
49459;BME280;35354;51.296;16.924;2022-08-11T02:55:46;100444.59;;;16.67;71.97
49459;BME280;35354;51.296;16.924;2022-08-11T03:01:51;100457.00;;;16.65;72.95
49459;BME280;35354;51.296;16.924;2022-08-11T03:04:26;100450.13;;;16.62;73.10
49459;BME280;35354;51.296;16.924;2022-08-11T03:07:04;100457.28;;;16.60;73.55
49459;BME280;35354;51.296;16.924;2022-08-11T03:12:17;100454.81;;;16.57;74.04
49459;BME280;35354;51.296;16.924;2022-08-11T03:18:27;100454.13;;;16.54;73.73
49459;BME280;35354;51.296;16.924;2022-08-11T03:21:20;100460.34;;;16.53;74.53
49459;BME280;35354;51.296;16.924;2022-08-11T03:24:14;100461.53;;;16.47;74.23
49459;BME280;35354;51.296;16.924;2022-08-11T03:27:02;100462.31;;;16.49;75.18
49459;BME280;35354;51.296;16.924;2022-08-11T03:29:29;100465.94;;;16.46;75.29
49459;BME280;35354;51.296;16.924;2022-08-11T03:32:03;100454.00;;;16.41;75.61
49459;BME280;35354;51.296;16.924;2022-08-11T03:34:30;100450.72;;;16.37;75.89
49459;BME280;35354;51.296;16.924;2022-08-11T03:42:51;100466.38;;;16.39;76.96
49459;BME280;35354;51.296;16.924;2022-08-11T03:45:32;100466.38;;;16.39;76.71
49459;BME280;35354;51.296;16.924;2022-08-11T03:48:18;100460.22;;;16.40;76.22
49459;BME280;35354;51.296;16.924;2022-08-11T03:53:58;100461.53;;;16.47;76.30
49459;BME280;35354;51.296;16.924;2022-08-11T04:12:52;100448.75;;;17.85;71.35
49459;BME280;35354;51.296;16.924;2022-08-11T04:24:13;100454.03;;;20.04;62.66
49459;BME280;35354;51.296;16.924;2022-08-11T04:29:56;100452.66;;;20.46;60.77
49459;BME280;35354;51.296;16.924;2022-08-11T04:45:01;100431.59;;;22.87;53.08
49459;BME280;35354;51.296;16.924;2022-08-11T04:47:50;100450.41;;;23.56;50.91
49459;BME280;35354;51.296;16.924;2022-08-11T04:50:57;100454.13;;;23.44;51.27
49459;BME280;35354;51.296;16.924;2022-08-11T04:54:12;100447.94;;;23.34;51.13
49459;BME280;35354;51.296;16.924;2022-08-11T04:57:08;100452.84;;;23.38;50.58
49459;BME280;35354;51.296;16.924;2022-08-11T05:00:04;100450.81;;;23.52;50.10
49459;BME280;35354;51.296;16.924;2022-08-11T05:05:52;100457.09;;;25.62;46.26
49459;BME280;35354;51.296;16.924;2022-08-11T05:13:51;100470.63;;;26.06;43.62
49459;BME280;35354;51.296;16.924;2022-08-11T05:16:49;100464.09;;;25.91;44.22
49459;BME280;35354;51.296;16.924;2022-08-11T05:19:35;100464.88;;;25.83;44.06
49459;BME280;35354;51.296;16.924;2022-08-11T05:22:23;100461.50;;;25.81;44.56
49459;BME280;35354;51.296;16.924;2022-08-11T05:25:15;100464.34;;;26.95;42.81
49459;BME280;35354;51.296;16.924;2022-08-11T05:30:46;100464.94;;;28.42;39.92
49459;BME280;35354;51.296;16.924;2022-08-11T05:36:59;100475.34;;;26.92;42.55
49459;BME280;35354;51.296;16.924;2022-08-11T05:39:28;100470.13;;;26.82;42.81
49459;BME280;35354;51.296;16.924;2022-08-11T05:42:16;100479.09;;;26.99;42.56
49459;BME280;35354;51.296;16.924;2022-08-11T05:45:04;100469.19;;;27.44;42.11
49459;BME280;35354;51.296;16.924;2022-08-11T05:47:53;100462.19;;;29.07;39.68
49459;BME280;35354;51.296;16.924;2022-08-11T05:50:38;100487.84;;;29.02;39.20
49459;BME280;35354;51.296;16.924;2022-08-11T05:53:23;100484.81;;;27.30;41.64
49459;BME280;35354;51.296;16.924;2022-08-11T05:56:08;100480.22;;;27.15;43.12
49459;BME280;35354;51.296;16.924;2022-08-11T05:58:51;100481.34;;;27.38;43.05
49459;BME280;35354;51.296;16.924;2022-08-11T06:01:35;100496.06;;;28.43;41.55
49459;BME280;35354;51.296;16.924;2022-08-11T06:04:06;100485.41;;;30.18;38.74
49459;BME280;35354;51.296;16.924;2022-08-11T06:07:05;100499.25;;;30.53;37.28
49459;BME280;35354;51.296;16.924;2022-08-11T06:12:05;100499.94;;;28.57;40.40
49459;BME280;35354;51.296;16.924;2022-08-11T06:14:32;100507.72;;;28.18;41.61
49459;BME280;35354;51.296;16.924;2022-08-11T06:16:59;100493.63;;;27.91;42.06
49459;BME280;35354;51.296;16.924;2022-08-11T06:19:33;100501.47;;;27.93;42.59
49459;BME280;35354;51.296;16.924;2022-08-11T06:22:01;100494.31;;;28.01;42.53
49459;BME280;35354;51.296;16.924;2022-08-11T06:24:28;100499.38;;;28.29;42.60
49459;BME280;35354;51.296;16.924;2022-08-11T06:26:56;100502.13;;;28.62;41.94
49459;BME280;35354;51.296;16.924;2022-08-11T06:29:23;100503.72;;;28.30;41.30
49459;BME280;35354;51.296;16.924;2022-08-11T06:32:02;100496.16;;;27.58;42.86
49459;BME280;35354;51.296;16.924;2022-08-11T06:37:23;100498.16;;;27.99;42.29
49459;BME280;35354;51.296;16.924;2022-08-11T06:42:45;100499.09;;;30.46;39.32
49459;BME280;35354;51.296;16.924;2022-08-11T06:45:39;100500.41;;;31.11;37.67
49459;BME280;35354;51.296;16.924;2022-08-11T06:48:15;100493.25;;;31.63;37.18
49459;BME280;35354;51.296;16.924;2022-08-11T06:50:48;100484.81;;;32.88;34.93
49459;BME280;35354;51.296;16.924;2022-08-11T06:53:32;100494.06;;;34.70;33.12
49459;BME280;35354;51.296;16.924;2022-08-11T06:55:59;100501.44;;;36.88;30.22
49459;BME280;35354;51.296;16.924;2022-08-11T06:58:46;100502.09;;;39.48;27.52
49459;BME280;35354;51.296;16.924;2022-08-11T07:01:39;100489.75;;;41.15;26.10
49459;BME280;35354;51.296;16.924;2022-08-11T07:04:11;100487.09;;;41.42;25.23
49459;BME280;35354;51.296;16.924;2022-08-11T07:06:54;100487.41;;;41.46;24.77
49459;BME280;35354;51.296;16.924;2022-08-11T07:13:11;100473.53;;;43.71;23.35
49459;BME280;35354;51.296;16.924;2022-08-11T07:15:56;100478.78;;;44.90;22.14
49459;BME280;35354;51.296;16.924;2022-08-11T07:18:26;100472.22;;;45.50;21.22
49459;BME280;35354;51.296;16.924;2022-08-11T07:21:30;100470.63;;;46.28;20.67
49459;BME280;35354;51.296;16.924;2022-08-11T07:24:20;100475.72;;;46.40;20.66
49459;BME280;35354;51.296;16.924;2022-08-11T07:27:10;100471.91;;;47.18;20.01
49459;BME280;35354;51.296;16.924;2022-08-11T07:30:00;100474.03;;;47.64;19.79
49459;BME280;35354;51.296;16.924;2022-08-11T07:32:32;100476.88;;;48.15;19.31
49459;BME280;35354;51.296;16.924;2022-08-11T07:35:11;100476.09;;;49.03;18.50
49459;BME280;35354;51.296;16.924;2022-08-11T07:37:46;100483.34;;;49.76;18.03
49459;BME280;35354;51.296;16.924;2022-08-11T07:40:12;100489.81;;;50.30;17.72
49459;BME280;35354;51.296;16.924;2022-08-11T07:42:38;100484.44;;;50.56;17.07
49459;BME280;35354;51.296;16.924;2022-08-11T07:45:07;100479.50;;;50.00;17.40
49459;BME280;35354;51.296;16.924;2022-08-11T07:48:13;100468.44;;;46.54;19.54
49459;BME280;35354;51.296;16.924;2022-08-11T07:51:00;100470.63;;;48.10;18.40
49459;BME280;35354;51.296;16.924;2022-08-11T07:53:45;100475.00;;;48.76;17.68
49459;BME280;35354;51.296;16.924;2022-08-11T07:56:11;100486.44;;;47.47;19.16
49459;BME280;35354;51.296;16.924;2022-08-11T07:58:41;100464.25;;;46.33;19.35
49459;BME280;35354;51.296;16.924;2022-08-11T08:01:26;100479.06;;;44.83;20.33
49459;BME280;35354;51.296;16.924;2022-08-11T08:04:14;100466.50;;;46.25;19.85
49459;BME280;35354;51.296;16.924;2022-08-11T08:07:00;100464.97;;;45.00;20.45
49459;BME280;35354;51.296;16.924;2022-08-11T08:09:47;100462.56;;;47.57;19.19
49459;BME280;35354;51.296;16.924;2022-08-11T08:12:32;100472.00;;;49.00;18.49
49459;BME280;35354;51.296;16.924;2022-08-11T08:15:19;100467.69;;;49.35;18.14
49459;BME280;35354;51.296;16.924;2022-08-11T08:18:05;100473.41;;;48.70;18.02
49459;BME280;35354;51.296;16.924;2022-08-11T08:20:36;100477.03;;;47.86;18.33
49459;BME280;35354;51.296;16.924;2022-08-11T08:23:02;100462.09;;;47.31;18.60
49459;BME280;35354;51.296;16.924;2022-08-11T08:25:30;100468.31;;;47.41;18.55
49459;BME280;35354;51.296;16.924;2022-08-11T08:27:57;100464.06;;;46.53;19.19
49459;BME280;35354;51.296;16.924;2022-08-11T08:30:27;100452.63;;;45.02;19.90
49459;BME280;35354;51.296;16.924;2022-08-11T08:33:14;100443.97;;;40.50;22.92
49459;BME280;35354;51.296;16.924;2022-08-11T08:35:40;100452.47;;;36.76;26.74
49459;BME280;35354;51.296;16.924;2022-08-11T08:38:06;100448.28;;;34.49;29.82
49459;BME280;35354;51.296;16.924;2022-08-11T08:40:32;100435.88;;;32.63;32.35
49459;BME280;35354;51.296;16.924;2022-08-11T08:43:02;100437.44;;;31.35;34.59
49459;BME280;35354;51.296;16.924;2022-08-11T08:45:29;100438.25;;;30.53;36.10
49459;BME280;35354;51.296;16.924;2022-08-11T08:48:00;100429.41;;;29.99;36.58
49459;BME280;35354;51.296;16.924;2022-08-11T08:50:31;100435.84;;;29.11;37.48
49459;BME280;35354;51.296;16.924;2022-08-11T08:53:20;100440.94;;;28.73;38.32
49459;BME280;35354;51.296;16.924;2022-08-11T08:55:45;100446.59;;;27.89;40.08
49459;BME280;35354;51.296;16.924;2022-08-11T08:58:13;100447.44;;;26.86;42.68
49459;BME280;35354;51.296;16.924;2022-08-11T09:00:43;100439.19;;;26.54;43.97
49459;BME280;35354;51.296;16.924;2022-08-11T09:03:09;100422.56;;;26.42;44.11
49459;BME280;35354;51.296;16.924;2022-08-11T09:05:35;100441.31;;;26.32;43.00
49459;BME280;35354;51.296;16.924;2022-08-11T09:08:01;100443.97;;;26.32;43.10
49459;BME280;35354;51.296;16.924;2022-08-11T09:10:28;100432.25;;;26.25;43.80
49459;BME280;35354;51.296;16.924;2022-08-11T09:12:56;100429.31;;;26.54;43.59
49459;BME280;35354;51.296;16.924;2022-08-11T09:15:22;100429.66;;;26.77;42.54
49459;BME280;35354;51.296;16.924;2022-08-11T09:17:50;100432.34;;;26.77;41.73
49459;BME280;35354;51.296;16.924;2022-08-11T09:20:20;100433.75;;;26.64;40.92
49459;BME280;35354;51.296;16.924;2022-08-11T09:22:47;100422.31;;;26.53;40.92
49459;BME280;35354;51.296;16.924;2022-08-11T09:25:33;100436.03;;;26.58;41.37
49459;BME280;35354;51.296;16.924;2022-08-11T09:28:19;100434.75;;;26.89;41.00
49459;BME280;35354;51.296;16.924;2022-08-11T09:30:48;100433.94;;;26.96;41.16
49459;BME280;35354;51.296;16.924;2022-08-11T09:33:18;100424.66;;;27.08;40.85
49459;BME280;35354;51.296;16.924;2022-08-11T09:35:46;100414.44;;;27.04;39.75
49459;BME280;35354;51.296;16.924;2022-08-11T09:38:14;100424.03;;;27.49;40.12
49459;BME280;35354;51.296;16.924;2022-08-11T09:41:02;100435.34;;;27.85;39.19
49459;BME280;35354;51.296;16.924;2022-08-11T09:43:30;100422.19;;;28.00;38.75
49459;BME280;35354;51.296;16.924;2022-08-11T09:46:15;100441.56;;;27.94;38.61
49459;BME280;35354;51.296;16.924;2022-08-11T09:48:44;100447.34;;;27.65;38.36
49459;BME280;35354;51.296;16.924;2022-08-11T09:51:10;100434.81;;;27.23;38.72
49459;BME280;35354;51.296;16.924;2022-08-11T09:53:38;100439.16;;;27.24;39.14
49459;BME280;35354;51.296;16.924;2022-08-11T09:56:08;100442.00;;;27.30;39.27
49459;BME280;35354;51.296;16.924;2022-08-11T09:58:52;100424.38;;;27.11;39.33
49459;BME280;35354;51.296;16.924;2022-08-11T10:01:20;100432.66;;;27.26;39.65
49459;BME280;35354;51.296;16.924;2022-08-11T10:03:55;100425.09;;;27.22;39.54
49459;BME280;35354;51.296;16.924;2022-08-11T10:06:23;100425.78;;;26.98;39.86
49459;BME280;35354;51.296;16.924;2022-08-11T10:09:08;100429.59;;;26.95;40.04
49459;BME280;35354;51.296;16.924;2022-08-11T10:11:35;100411.28;;;27.08;39.66
49459;BME280;35354;51.296;16.924;2022-08-11T10:14:04;100422.59;;;26.94;40.16
49459;BME280;35354;51.296;16.924;2022-08-11T10:16:50;100412.56;;;26.70;40.39
49459;BME280;35354;51.296;16.924;2022-08-11T10:19:16;100421.00;;;26.57;40.25
49459;BME280;35354;51.296;16.924;2022-08-11T10:21:54;100415.69;;;26.22;40.61
49459;BME280;35354;51.296;16.924;2022-08-11T10:24:52;100410.81;;;26.17;41.38
49459;BME280;35354;51.296;16.924;2022-08-11T10:27:41;100403.28;;;26.12;39.58
49459;BME280;35354;51.296;16.924;2022-08-11T10:30:07;100406.31;;;26.00;38.97
49459;BME280;35354;51.296;16.924;2022-08-11T10:32:52;100420.81;;;25.97;40.31
49459;BME280;35354;51.296;16.924;2022-08-11T10:35:36;100404.47;;;25.82;39.15
49459;BME280;35354;51.296;16.924;2022-08-11T10:38:03;100405.34;;;25.73;39.35
49459;BME280;35354;51.296;16.924;2022-08-11T10:40:29;100388.19;;;25.58;39.84
49459;BME280;35354;51.296;16.924;2022-08-11T10:42:58;100405.75;;;25.78;40.97
49459;BME280;35354;51.296;16.924;2022-08-11T10:45:29;100406.41;;;25.62;39.29
49459;BME280;35354;51.296;16.924;2022-08-11T10:48:26;100396.41;;;25.47;38.62
49459;BME280;35354;51.296;16.924;2022-08-11T10:50:53;100394.03;;;25.44;39.36
49459;BME280;35354;51.296;16.924;2022-08-11T10:53:40;100404.38;;;25.29;41.11
49459;BME280;35354;51.296;16.924;2022-08-11T10:56:26;100383.59;;;25.23;41.26
49459;BME280;35354;51.296;16.924;2022-08-11T10:59:12;100391.97;;;25.37;41.55
49459;BME280;35354;51.296;16.924;2022-08-11T11:01:42;100389.69;;;25.43;42.09
49459;BME280;35354;51.296;16.924;2022-08-11T11:04:12;100390.44;;;25.53;40.69
49459;BME280;35354;51.296;16.924;2022-08-11T11:09:31;100386.28;;;25.68;39.93
49459;BME280;35354;51.296;16.924;2022-08-11T11:14:52;100383.44;;;25.52;41.43
49459;BME280;35354;51.296;16.924;2022-08-11T11:17:39;100381.03;;;25.31;41.39
49459;BME280;35354;51.296;16.924;2022-08-11T11:20:42;100382.13;;;25.38;42.38
49459;BME280;35354;51.296;16.924;2022-08-11T11:25:57;100383.09;;;25.64;42.54
49459;BME280;35354;51.296;16.924;2022-08-11T11:39:10;100370.00;;;25.71;43.73
49459;BME280;35354;51.296;16.924;2022-08-11T11:41:36;100353.34;;;25.42;43.21
49459;BME280;35354;51.296;16.924;2022-08-11T11:44:03;100350.19;;;25.28;43.18
49459;BME280;35354;51.296;16.924;2022-08-11T11:46:29;100340.69;;;25.44;44.08
49459;BME280;35354;51.296;16.924;2022-08-11T11:48:56;100338.81;;;25.72;43.75
49459;BME280;35354;51.296;16.924;2022-08-11T11:51:23;100337.53;;;25.94;42.50
49459;BME280;35354;51.296;16.924;2022-08-11T11:53:50;100325.31;;;26.09;43.20
49459;BME280;35354;51.296;16.924;2022-08-11T11:56:18;100336.31;;;26.32;42.55
49459;BME280;35354;51.296;16.924;2022-08-11T11:58:44;100332.13;;;26.29;41.92
49459;BME280;35354;51.296;16.924;2022-08-11T12:01:29;100329.16;;;26.32;42.01
49459;BME280;35354;51.296;16.924;2022-08-11T12:03:56;100310.25;;;26.26;40.96
49459;BME280;35354;51.296;16.924;2022-08-11T12:06:23;100308.91;;;26.22;41.17
49459;BME280;35354;51.296;16.924;2022-08-11T12:08:52;100302.66;;;26.13;40.95
49459;BME280;35354;51.296;16.924;2022-08-11T12:11:21;100312.81;;;26.09;40.63
49459;BME280;35354;51.296;16.924;2022-08-11T12:14:06;100307.72;;;26.24;39.51
49459;BME280;35354;51.296;16.924;2022-08-11T12:16:38;100307.84;;;26.41;39.31
49459;BME280;35354;51.296;16.924;2022-08-11T12:19:10;100318.81;;;26.55;39.10
49459;BME280;35354;51.296;16.924;2022-08-11T12:21:36;100306.00;;;26.67;40.74
49459;BME280;35354;51.296;16.924;2022-08-11T12:24:03;100303.03;;;26.44;39.34
49459;BME280;35354;51.296;16.924;2022-08-11T12:26:47;100304.75;;;26.27;39.79
49459;BME280;35354;51.296;16.924;2022-08-11T12:29:15;100320.94;;;26.08;40.64
49459;BME280;35354;51.296;16.924;2022-08-11T12:31:41;100309.78;;;26.04;41.33
49459;BME280;35354;51.296;16.924;2022-08-11T12:34:11;100301.03;;;26.20;41.49
49459;BME280;35354;51.296;16.924;2022-08-11T12:36:39;100288.38;;;26.22;40.82
49459;BME280;35354;51.296;16.924;2022-08-11T12:39:08;100288.56;;;26.29;39.76
49459;BME280;35354;51.296;16.924;2022-08-11T12:41:35;100282.97;;;26.14;40.63
49459;BME280;35354;51.296;16.924;2022-08-11T12:44:23;100293.41;;;26.25;41.81
49459;BME280;35354;51.296;16.924;2022-08-11T12:47:08;100285.41;;;26.07;40.81
49459;BME280;35354;51.296;16.924;2022-08-11T12:49:36;100278.19;;;26.00;40.95
49459;BME280;35354;51.296;16.924;2022-08-11T12:52:25;100274.94;;;25.88;41.31
49459;BME280;35354;51.296;16.924;2022-08-11T12:55:10;100279.13;;;25.91;41.92
49459;BME280;35354;51.296;16.924;2022-08-11T12:57:44;100270.16;;;26.00;42.08
49459;BME280;35354;51.296;16.924;2022-08-11T13:00:31;100275.97;;;26.13;40.61
49459;BME280;35354;51.296;16.924;2022-08-11T13:03:18;100265.78;;;26.17;40.18
49459;BME280;35354;51.296;16.924;2022-08-11T13:06:03;100261.84;;;26.47;40.38
49459;BME280;35354;51.296;16.924;2022-08-11T13:08:34;100247.22;;;26.59;38.93
49459;BME280;35354;51.296;16.924;2022-08-11T13:11:00;100240.22;;;26.74;38.63
49459;BME280;35354;51.296;16.924;2022-08-11T13:13:46;100235.75;;;26.83;39.39
49459;BME280;35354;51.296;16.924;2022-08-11T13:16:12;100239.28;;;26.92;38.38
49459;BME280;35354;51.296;16.924;2022-08-11T13:18:40;100235.25;;;26.87;38.56
49459;BME280;35354;51.296;16.924;2022-08-11T13:21:08;100236.69;;;26.66;38.38
49459;BME280;35354;51.296;16.924;2022-08-11T13:23:34;100252.03;;;26.55;39.87
49459;BME280;35354;51.296;16.924;2022-08-11T13:26:02;100253.38;;;26.33;40.16
49459;BME280;35354;51.296;16.924;2022-08-11T13:28:28;100247.50;;;26.04;41.13
49459;BME280;35354;51.296;16.924;2022-08-11T13:30:54;100235.75;;;25.71;41.45
49459;BME280;35354;51.296;16.924;2022-08-11T13:33:46;100245.69;;;25.43;41.85
49459;BME280;35354;51.296;16.924;2022-08-11T13:36:18;100241.72;;;25.29;42.23
49459;BME280;35354;51.296;16.924;2022-08-11T13:38:44;100237.75;;;25.33;42.21
49459;BME280;35354;51.296;16.924;2022-08-11T13:41:10;100230.13;;;25.38;41.05
49459;BME280;35354;51.296;16.924;2022-08-11T13:43:55;100231.97;;;25.37;39.15
49459;BME280;35354;51.296;16.924;2022-08-11T13:46:22;100228.38;;;25.47;39.66
49459;BME280;35354;51.296;16.924;2022-08-11T13:48:50;100211.97;;;25.59;38.88
49459;BME280;35354;51.296;16.924;2022-08-11T13:51:17;100212.34;;;25.82;38.21
49459;BME280;35354;51.296;16.924;2022-08-11T13:54:20;100212.97;;;26.02;38.51
49459;BME280;35354;51.296;16.924;2022-08-11T13:56:48;100213.75;;;25.95;38.80
49459;BME280;35354;51.296;16.924;2022-08-11T13:59:17;100207.69;;;26.10;39.12
49459;BME280;35354;51.296;16.924;2022-08-11T14:01:57;100207.25;;;26.23;38.70
49459;BME280;35354;51.296;16.924;2022-08-11T14:04:31;100201.38;;;26.20;38.98
49459;BME280;35354;51.296;16.924;2022-08-11T14:07:02;100196.25;;;25.92;39.59
49459;BME280;35354;51.296;16.924;2022-08-11T14:09:35;100208.31;;;25.78;39.68
49459;BME280;35354;51.296;16.924;2022-08-11T14:12:08;100201.41;;;25.50;39.87
49459;BME280;35354;51.296;16.924;2022-08-11T14:15:02;100199.53;;;25.24;40.74
49459;BME280;35354;51.296;16.924;2022-08-11T14:17:31;100209.47;;;25.22;41.38
49459;BME280;35354;51.296;16.924;2022-08-11T14:20:02;100207.34;;;25.26;41.20
49459;BME280;35354;51.296;16.924;2022-08-11T14:22:29;100184.38;;;25.25;41.06
49459;BME280;35354;51.296;16.924;2022-08-11T14:24:56;100192.09;;;25.36;40.19
49459;BME280;35354;51.296;16.924;2022-08-11T14:27:22;100189.97;;;25.39;40.11
49459;BME280;35354;51.296;16.924;2022-08-11T14:29:51;100180.00;;;25.42;39.93
49459;BME280;35354;51.296;16.924;2022-08-11T14:32:19;100171.53;;;25.46;39.80
49459;BME280;35354;51.296;16.924;2022-08-11T14:34:45;100172.44;;;25.55;39.60
49459;BME280;35354;51.296;16.924;2022-08-11T14:37:12;100170.66;;;25.63;38.99
49459;BME280;35354;51.296;16.924;2022-08-11T14:39:45;100163.50;;;25.64;39.15
49459;BME280;35354;51.296;16.924;2022-08-11T14:42:13;100158.31;;;25.62;39.71
49459;BME280;35354;51.296;16.924;2022-08-11T14:45:02;100175.31;;;25.79;38.93
49459;BME280;35354;51.296;16.924;2022-08-11T14:47:50;100165.53;;;25.70;39.58
49459;BME280;35354;51.296;16.924;2022-08-11T14:50:26;100174.88;;;25.74;39.10
49459;BME280;35354;51.296;16.924;2022-08-11T14:52:55;100176.53;;;25.67;39.21
49459;BME280;35354;51.296;16.924;2022-08-11T14:55:24;100178.03;;;25.70;39.18
49459;BME280;35354;51.296;16.924;2022-08-11T14:58:10;100167.81;;;25.65;38.26
49459;BME280;35354;51.296;16.924;2022-08-11T15:00:37;100175.06;;;25.73;38.28
49459;BME280;35354;51.296;16.924;2022-08-11T15:03:05;100170.94;;;25.78;38.39
49459;BME280;35354;51.296;16.924;2022-08-11T15:05:37;100170.16;;;25.86;38.63
49459;BME280;35354;51.296;16.924;2022-08-11T15:08:05;100176.72;;;25.92;38.28
49459;BME280;35354;51.296;16.924;2022-08-11T15:10:31;100166.00;;;25.83;39.17
49459;BME280;35354;51.296;16.924;2022-08-11T15:12:57;100158.47;;;25.79;39.19
49459;BME280;35354;51.296;16.924;2022-08-11T15:15:24;100157.78;;;25.77;39.48
49459;BME280;35354;51.296;16.924;2022-08-11T15:18:11;100170.94;;;25.78;38.52
49459;BME280;35354;51.296;16.924;2022-08-11T15:20:39;100161.00;;;25.62;37.74
49459;BME280;35354;51.296;16.924;2022-08-11T15:23:24;100145.91;;;25.53;38.60
49459;BME280;35354;51.296;16.924;2022-08-11T15:26:12;100166.81;;;25.58;38.48
49459;BME280;35354;51.296;16.924;2022-08-11T15:28:38;100168.78;;;25.56;39.02
49459;BME280;35354;51.296;16.924;2022-08-11T15:31:25;100164.44;;;25.55;39.00
49459;BME280;35354;51.296;16.924;2022-08-11T15:33:53;100163.91;;;25.51;38.07
49459;BME280;35354;51.296;16.924;2022-08-11T15:36:40;100157.84;;;25.41;38.29
49459;BME280;35354;51.296;16.924;2022-08-11T15:40:08;100172.84;;;25.42;39.05
49459;BME280;35354;51.296;16.924;2022-08-11T15:43:03;100163.47;;;25.38;40.37
49459;BME280;35354;51.296;16.924;2022-08-11T15:45:52;100160.75;;;25.30;40.48
49459;BME280;35354;51.296;16.924;2022-08-11T15:48:33;100168.56;;;25.31;40.29
49459;BME280;35354;51.296;16.924;2022-08-11T15:53:53;100152.50;;;25.23;40.83
49459;BME280;35354;51.296;16.924;2022-08-11T15:56:22;100168.91;;;25.28;41.07
49459;BME280;35354;51.296;16.924;2022-08-11T15:58:50;100163.88;;;25.25;40.01
49459;BME280;35354;51.296;16.924;2022-08-11T16:01:37;100164.00;;;25.24;40.54
49459;BME280;35354;51.296;16.924;2022-08-11T16:04:23;100171.50;;;25.20;40.14
49459;BME280;35354;51.296;16.924;2022-08-11T16:07:04;100168.59;;;25.13;39.86
49459;BME280;35354;51.296;16.924;2022-08-11T16:09:48;100171.84;;;25.07;40.35
49459;BME280;35354;51.296;16.924;2022-08-11T16:12:17;100161.94;;;25.00;40.35
49459;BME280;35354;51.296;16.924;2022-08-11T16:14:48;100156.16;;;25.04;40.20
49459;BME280;35354;51.296;16.924;2022-08-11T16:17:39;100157.75;;;24.97;41.32
49459;BME280;35354;51.296;16.924;2022-08-11T16:20:06;100155.22;;;24.96;41.66
49459;BME280;35354;51.296;16.924;2022-08-11T16:22:33;100159.03;;;24.93;41.78
49459;BME280;35354;51.296;16.924;2022-08-11T16:25:04;100153.31;;;24.88;42.35
49459;BME280;35354;51.296;16.924;2022-08-11T16:27:35;100161.69;;;24.93;42.35
49459;BME280;35354;51.296;16.924;2022-08-11T16:30:02;100164.13;;;24.86;42.21
49459;BME280;35354;51.296;16.924;2022-08-11T16:32:30;100173.94;;;24.86;42.10
49459;BME280;35354;51.296;16.924;2022-08-11T16:34:59;100168.56;;;24.78;41.85